createdAt,value
2023-01-21T00:01:00.473Z,2.13
2023-01-21T00:03:27.305Z,1.30
2023-01-21T00:05:56.647Z,1.30
2023-01-21T00:08:23.409Z,1.30
2023-01-21T00:10:50.277Z,1.50
2023-01-21T00:13:17.121Z,1.20
2023-01-21T00:15:44.049Z,1.07
2023-01-21T00:18:11.156Z,1.37
2023-01-21T00:20:37.921Z,1.63
2023-01-21T00:23:05.142Z,1.73
2023-01-21T00:25:31.975Z,1.20
2023-01-21T00:27:59.988Z,1.60
2023-01-21T00:30:26.847Z,1.27
2023-01-21T00:32:53.591Z,1.20
2023-01-21T00:35:20.251Z,2.30
2023-01-21T00:37:46.994Z,2.37
2023-01-21T00:40:14.424Z,2.13
2023-01-21T00:42:41.250Z,1.47
2023-01-21T00:45:08.803Z,1.20
2023-01-21T00:47:35.705Z,1.40
2023-01-21T00:50:02.386Z,1.43
2023-01-21T00:52:29.067Z,1.30
2023-01-21T00:54:55.975Z,1.37
2023-01-21T00:57:22.803Z,1.20
2023-01-21T00:59:49.667Z,0.80
2023-01-21T01:02:16.588Z,0.77
2023-01-21T01:04:43.279Z,1.43
2023-01-21T01:07:11.300Z,1.00
2023-01-21T01:09:38.581Z,1.13
2023-01-21T01:12:06.335Z,1.57
2023-01-21T01:14:33.295Z,0.77
2023-01-21T01:17:00.294Z,1.80
2023-01-21T01:19:27.013Z,1.47
2023-01-21T01:21:53.662Z,0.73
2023-01-21T01:24:20.425Z,0.80
2023-01-21T01:26:47.091Z,0.80
2023-01-21T01:29:13.839Z,0.90
2023-01-21T01:31:40.918Z,1.03
2023-01-21T01:34:07.581Z,1.07
2023-01-21T01:36:34.394Z,1.90
2023-01-21T01:39:03.354Z,1.10
2023-01-21T01:41:32.152Z,1.70
2023-01-21T01:44:03.195Z,1.00
2023-01-21T01:46:34.836Z,1.30
2023-01-21T01:49:17.133Z,1.10
2023-01-21T01:51:51.629Z,0.70
2023-01-21T01:54:24.629Z,0.80
2023-01-21T01:59:21.332Z,1.00
2023-01-21T02:01:48.139Z,0.83
2023-01-21T02:04:20.957Z,1.10
2023-01-21T02:06:49.098Z,1.08
2023-01-21T02:09:15.844Z,1.00
2023-01-21T02:11:42.803Z,0.70
2023-01-21T02:14:09.860Z,1.43
2023-01-21T02:16:36.498Z,0.70
2023-01-21T02:19:31.717Z,0.80
2023-01-21T02:22:27.501Z,0.97
2023-01-21T02:25:06.307Z,0.50
2023-01-21T02:28:01.095Z,1.20
2023-01-21T02:30:36.757Z,0.70
2023-01-21T02:33:13.658Z,1.00
2023-01-21T02:35:51.732Z,0.60
2023-01-21T02:38:46.422Z,0.80
2023-01-21T02:41:23.423Z,1.27
2023-01-21T02:44:00.970Z,0.60
2023-01-21T02:46:51.026Z,0.60
2023-01-21T02:49:45.537Z,0.90
2023-01-21T02:52:20.012Z,1.20
2023-01-21T02:54:52.205Z,1.33
2023-01-21T02:57:29.453Z,1.63
2023-01-21T02:59:57.327Z,1.40
2023-01-21T03:02:43.108Z,0.70
2023-01-21T03:05:36.055Z,1.40
2023-01-21T03:08:11.624Z,0.77
2023-01-21T03:11:01.340Z,0.63
2023-01-21T03:14:00.114Z,0.80
2023-01-21T03:16:52.214Z,1.00
2023-01-21T03:19:21.820Z,1.10
2023-01-21T03:21:51.184Z,0.93
2023-01-21T03:24:19.345Z,0.77
2023-01-21T03:26:49.794Z,1.43
2023-01-21T03:29:22.329Z,0.53
2023-01-21T03:31:54.211Z,0.57
2023-01-21T03:34:23.877Z,0.57
2023-01-21T03:37:18.089Z,1.90
2023-01-21T03:39:51.770Z,0.70
2023-01-21T03:42:18.684Z,0.70
2023-01-21T03:44:46.518Z,1.27
2023-01-21T03:47:35.331Z,0.70
2023-01-21T03:50:23.419Z,0.90
2023-01-21T03:52:50.644Z,0.70
2023-01-21T03:55:18.106Z,0.90
2023-01-21T03:57:44.859Z,0.63
2023-01-21T04:00:13.469Z,2.13
2023-01-21T04:02:40.211Z,1.00
2023-01-21T04:05:07.269Z,1.77
2023-01-21T04:07:34.069Z,0.60
2023-01-21T04:10:00.780Z,0.83
2023-01-21T04:12:27.612Z,0.80
2023-01-21T04:14:54.380Z,1.83
2023-01-21T04:17:21.067Z,0.67
2023-01-21T04:19:47.942Z,0.63
2023-01-21T04:22:14.690Z,0.50
2023-01-21T04:24:41.395Z,0.80
2023-01-21T04:27:08.195Z,0.60
2023-01-21T04:29:35.181Z,0.80
2023-01-21T04:32:01.889Z,0.60
2023-01-21T04:34:28.781Z,0.70
2023-01-21T04:36:55.568Z,1.17
2023-01-21T04:39:22.225Z,1.60
2023-01-21T04:41:49.052Z,1.00
2023-01-21T04:44:15.884Z,0.57
2023-01-21T04:46:42.581Z,0.50
2023-01-21T04:49:09.475Z,0.50
2023-01-21T04:51:36.143Z,0.50
2023-01-21T04:54:02.789Z,0.70
2023-01-21T04:56:29.569Z,0.87
2023-01-21T04:58:56.309Z,0.83
2023-01-21T05:01:22.997Z,1.00
2023-01-21T05:03:49.747Z,0.70
2023-01-21T05:06:16.452Z,0.60
2023-01-21T05:08:43.091Z,1.33
2023-01-21T05:11:11.707Z,0.80
2023-01-21T05:13:38.404Z,0.70
2023-01-21T05:16:08.437Z,0.70
2023-01-21T05:18:39.119Z,0.87
2023-01-21T05:21:06.187Z,1.30
2023-01-21T05:23:33.476Z,1.00
2023-01-21T05:26:00.665Z,0.87
2023-01-21T05:28:27.320Z,0.80
2023-01-21T05:30:54.088Z,1.00
2023-01-21T05:33:26.363Z,0.70
2023-01-21T05:35:53.181Z,0.63
2023-01-21T05:38:19.838Z,0.90
2023-01-21T05:40:46.738Z,0.70
2023-01-21T05:43:13.377Z,1.37
2023-01-21T05:45:40.047Z,0.80
2023-01-21T05:48:06.964Z,1.37
2023-01-21T05:50:33.674Z,2.07
2023-01-21T05:53:00.322Z,1.00
2023-01-21T05:55:27.394Z,0.60
2023-01-21T05:57:54.054Z,0.60
2023-01-21T06:00:21.107Z,0.70
2023-01-21T06:02:47.905Z,0.60
2023-01-21T06:05:14.654Z,0.60
2023-01-21T06:07:41.286Z,0.90
2023-01-21T06:10:08.873Z,1.27
2023-01-21T06:12:35.548Z,0.83
2023-01-21T06:15:02.182Z,0.90
2023-01-21T06:17:29.272Z,1.00
2023-01-21T06:19:55.910Z,0.60
2023-01-21T06:22:22.705Z,0.70
2023-01-21T06:24:49.688Z,1.30
2023-01-21T06:27:16.329Z,1.13
2023-01-21T06:29:43.009Z,0.70
2023-01-21T06:32:10.110Z,0.70
2023-01-21T06:34:36.797Z,0.80
2023-01-21T06:37:03.473Z,0.73
2023-01-21T06:39:30.399Z,0.67
2023-01-21T06:41:57.087Z,0.80
2023-01-21T06:44:23.838Z,0.77
2023-01-21T06:47:00.600Z,1.07
2023-01-21T06:49:27.827Z,1.10
2023-01-21T06:51:54.650Z,0.80
2023-01-21T06:54:21.324Z,1.00
2023-01-21T06:56:47.961Z,1.00
2023-01-21T06:59:14.932Z,0.70
2023-01-21T07:01:41.626Z,1.13
2023-01-21T07:04:08.337Z,0.80
2023-01-21T07:06:35.163Z,1.40
2023-01-21T07:09:01.895Z,1.10
2023-01-21T07:11:28.522Z,0.90
2023-01-21T07:13:55.421Z,1.10
2023-01-21T07:16:22.181Z,1.57
2023-01-21T07:18:48.881Z,1.30
2023-01-21T07:21:15.924Z,1.50
2023-01-21T07:23:43.101Z,1.40
2023-01-21T07:26:09.739Z,1.00
2023-01-21T07:28:36.792Z,1.30
2023-01-21T07:31:04.936Z,1.90
2023-01-21T07:33:31.689Z,1.60
2023-01-21T07:35:58.597Z,1.47
2023-01-21T07:38:25.361Z,2.50
2023-01-21T07:40:51.984Z,2.10
2023-01-21T07:43:19.063Z,1.50
2023-01-21T07:45:46.019Z,1.93
2023-01-21T07:48:12.727Z,1.80
2023-01-21T07:50:39.632Z,1.93
2023-01-21T07:53:06.318Z,2.27
2023-01-21T07:55:32.966Z,2.47
2023-01-21T07:58:00.134Z,1.60
2023-01-21T08:00:27.303Z,1.60
2023-01-21T08:02:55.261Z,2.30
2023-01-21T08:05:26.197Z,1.97
2023-01-21T08:07:53.229Z,1.77
2023-01-21T08:10:22.260Z,1.87
2023-01-21T08:12:49.204Z,1.90
2023-01-21T08:15:16.401Z,2.40
2023-01-21T08:17:44.184Z,2.13
2023-01-21T08:20:12.204Z,1.60
2023-01-21T08:22:39.356Z,2.63
2023-01-21T08:25:06.742Z,2.90
2023-01-21T08:27:33.734Z,2.63
2023-01-21T08:30:00.400Z,2.23
2023-01-21T08:32:29.989Z,2.27
2023-01-21T08:34:56.978Z,2.50
2023-01-21T08:37:23.698Z,3.07
2023-01-21T08:39:50.353Z,3.20
2023-01-21T08:42:17.140Z,2.30
2023-01-21T08:44:43.820Z,2.27
2023-01-21T08:47:10.452Z,2.10
2023-01-21T08:49:37.412Z,3.27
2023-01-21T08:52:04.684Z,2.47
2023-01-21T08:54:31.389Z,2.20
2023-01-21T08:56:58.289Z,2.17
2023-01-21T08:59:28.801Z,2.07
2023-01-21T09:01:56.508Z,1.60
2023-01-21T09:04:23.716Z,1.55
2023-01-21T09:06:50.534Z,1.70
2023-01-21T09:09:17.389Z,2.30
2023-01-21T09:11:44.184Z,1.70
2023-01-21T09:14:10.881Z,2.40
2023-01-21T09:16:38.098Z,1.53
2023-01-21T09:19:05.025Z,2.03
2023-01-21T09:21:34.832Z,2.00
2023-01-21T09:24:02.875Z,2.43
2023-01-21T09:26:29.806Z,1.97
2023-01-21T09:28:58.901Z,1.37
2023-01-21T09:31:27.948Z,1.20
2023-01-21T09:33:58.619Z,1.47
2023-01-21T09:36:28.040Z,1.40
2023-01-21T09:38:55.281Z,1.40
2023-01-21T09:41:30.063Z,1.33
2023-01-21T09:43:59.726Z,1.40
2023-01-21T09:46:39.483Z,1.43
2023-01-21T09:49:13.477Z,1.20
2023-01-21T09:51:50.783Z,1.33
2023-01-21T09:54:27.445Z,2.13
2023-01-21T09:57:05.759Z,1.30
2023-01-21T09:59:41.940Z,1.43
2023-01-21T10:02:26.351Z,1.20
2023-01-21T10:05:07.900Z,1.33
2023-01-21T10:07:44.225Z,2.40
2023-01-21T10:10:33.795Z,2.13
2023-01-21T10:13:05.234Z,2.30
2023-01-21T10:15:45.487Z,1.53
2023-01-21T10:18:31.359Z,2.00
2023-01-21T10:21:13.728Z,1.93
2023-01-21T10:23:52.259Z,1.58
2023-01-21T10:26:18.909Z,1.40
2023-01-21T10:28:51.498Z,1.43
2023-01-21T10:31:27.298Z,0.95
2023-01-21T10:33:54.709Z,1.70
2023-01-21T10:36:24.037Z,1.53
2023-01-21T10:38:56.959Z,1.90
2023-01-21T10:41:32.871Z,1.83
2023-01-21T10:44:24.675Z,1.73
2023-01-21T10:47:03.225Z,1.67
2023-01-21T10:49:44.954Z,1.60
2023-01-21T10:52:20.792Z,3.27
2023-01-21T10:55:17.375Z,1.53
2023-01-21T10:57:58.119Z,2.17
2023-01-21T11:00:29.887Z,2.13
2023-01-21T11:03:02.464Z,1.20
2023-01-21T11:05:31.102Z,1.35
2023-01-21T11:07:58.801Z,1.90
2023-01-21T11:10:27.686Z,1.50
2023-01-21T11:12:55.708Z,1.17
2023-01-21T11:15:23.637Z,1.13
2023-01-21T11:17:56.826Z,1.63
2023-01-21T11:20:33.984Z,1.77
2023-01-21T11:23:04.323Z,1.47
2023-01-21T11:25:36.461Z,1.90
2023-01-21T11:28:04.377Z,1.88
2023-01-21T11:30:51.102Z,2.13
2023-01-21T11:33:25.993Z,2.07
2023-01-21T11:35:54.463Z,1.60
2023-01-21T11:38:32.102Z,1.53
2023-01-21T11:41:13.869Z,1.83
2023-01-21T11:43:43.679Z,2.60
2023-01-21T11:46:28.196Z,2.50
2023-01-21T11:49:20.045Z,3.50
2023-01-21T11:51:47.471Z,2.10
2023-01-21T11:54:14.158Z,1.47
2023-01-21T11:56:45.456Z,1.90
2023-01-21T11:59:25.842Z,2.00
2023-01-21T12:02:16.697Z,1.77
2023-01-21T12:04:53.809Z,2.80
2023-01-21T12:07:25.655Z,1.60
2023-01-21T12:10:02.719Z,1.40
2023-01-21T12:12:45.279Z,1.40
2023-01-21T12:15:51.065Z,1.42
2023-01-21T12:18:39.182Z,1.53
2023-01-21T12:21:12.604Z,2.00
2023-01-21T12:24:17.687Z,2.20
2023-01-21T12:27:10.665Z,2.17
2023-01-21T12:29:43.312Z,4.30
2023-01-21T12:32:28.579Z,1.83
2023-01-21T12:35:09.221Z,3.00
2023-01-21T12:37:47.074Z,1.93
2023-01-21T12:40:24.301Z,2.13
2023-01-21T12:42:56.270Z,2.13
2023-01-21T12:45:29.576Z,3.90
2023-01-21T12:48:05.903Z,2.60
2023-01-21T12:50:39.835Z,3.63
2023-01-21T12:53:20.300Z,1.43
2023-01-21T12:56:09.413Z,1.90
2023-01-21T12:58:45.412Z,2.00
2023-01-21T13:01:33.935Z,2.07
2023-01-21T13:04:30.090Z,1.40
2023-01-21T13:07:07.485Z,2.30
2023-01-21T13:10:08.945Z,1.57
2023-01-21T13:12:37.781Z,2.20
2023-01-21T13:15:28.650Z,1.70
2023-01-21T13:17:59.899Z,1.30
2023-01-21T13:20:30.492Z,1.60
2023-01-21T13:23:03.373Z,2.87
2023-01-21T13:25:33.753Z,1.95
2023-01-21T13:28:18.917Z,1.77
2023-01-21T13:31:08.838Z,1.90
2023-01-21T13:34:06.888Z,1.50
2023-01-21T13:36:39.413Z,1.63
2023-01-21T13:39:24.226Z,1.42
2023-01-21T13:42:02.951Z,2.33
2023-01-21T13:44:55.018Z,2.33
2023-01-21T13:47:29.865Z,2.03
2023-01-21T13:50:07.787Z,2.67
2023-01-21T13:53:25.164Z,2.50
2023-01-21T13:56:10.590Z,2.33
2023-01-21T13:58:47.701Z,5.00
2023-01-21T14:01:33.223Z,4.07
2023-01-21T14:04:17.604Z,3.00
2023-01-21T14:07:13.567Z,2.10
2023-01-21T14:10:06.359Z,2.00
2023-01-21T14:12:42.106Z,2.95
2023-01-21T14:15:23.354Z,1.83
2023-01-21T14:17:50.191Z,1.63
2023-01-21T14:20:39.392Z,1.63
2023-01-21T14:23:15.407Z,1.73
2023-01-21T14:25:44.641Z,2.27
2023-01-21T14:28:17.673Z,2.50
2023-01-21T14:31:07.754Z,2.00
2023-01-21T14:33:44.555Z,1.83
2023-01-21T14:36:43.424Z,2.67
2023-01-21T14:39:19.376Z,2.07
2023-01-21T14:42:02.706Z,2.00
2023-01-21T14:44:35.378Z,2.00
2023-01-21T14:47:41.519Z,1.60
2023-01-21T14:50:09.534Z,1.90
2023-01-21T14:52:44.615Z,2.20
2023-01-21T14:55:32.876Z,2.13
2023-01-21T14:58:01.819Z,2.20
2023-01-21T15:00:31.524Z,2.40
2023-01-21T15:03:39.873Z,1.97
2023-01-21T15:06:09.944Z,1.83
2023-01-21T15:08:48.993Z,1.90
2023-01-21T15:11:23.229Z,1.80
2023-01-21T15:14:03.671Z,2.33
2023-01-21T15:16:38.228Z,2.10
2023-01-21T15:19:08.279Z,2.13
2023-01-21T15:21:41.017Z,2.50
2023-01-21T15:24:25.934Z,1.73
2023-01-21T15:27:19.236Z,2.50
2023-01-21T15:29:55.252Z,1.75
2023-01-21T15:32:35.348Z,2.80
2023-01-21T15:35:11.140Z,2.83
2023-01-21T15:37:39.969Z,1.90
2023-01-21T15:40:28.705Z,2.60
2023-01-21T15:43:03.567Z,2.23
2023-01-21T15:45:49.103Z,2.17
2023-01-21T15:48:36.496Z,3.70
2023-01-21T15:51:23.082Z,2.23
2023-01-21T15:54:08.561Z,1.80
2023-01-21T15:57:22.380Z,2.03
2023-01-21T15:59:54.673Z,2.20
2023-01-21T16:02:25.867Z,2.30
2023-01-21T16:05:27.782Z,1.97
2023-01-21T16:08:03.740Z,2.37
2023-01-21T16:10:38.016Z,2.30
2023-01-21T16:13:29.264Z,1.80
2023-01-21T16:16:20.734Z,3.27
2023-01-21T16:18:59.691Z,2.63
2023-01-21T16:21:49.248Z,2.70
2023-01-21T16:24:19.349Z,2.40
2023-01-21T16:26:46.102Z,2.63
2023-01-21T16:29:14.613Z,3.47
2023-01-21T16:31:49.461Z,3.10
2023-01-21T16:34:25.066Z,2.63
2023-01-21T16:36:52.170Z,2.33
2023-01-21T16:39:19.801Z,3.00
2023-01-21T16:42:01.204Z,3.27
2023-01-21T16:44:35.525Z,5.93
2023-01-21T16:47:04.019Z,2.40
2023-01-21T16:49:31.020Z,3.57
2023-01-21T16:52:01.651Z,2.80
2023-01-21T16:54:31.740Z,2.30
2023-01-21T16:57:01.120Z,2.57
2023-01-21T16:59:46.203Z,2.33
2023-01-21T17:02:18.633Z,2.00
2023-01-21T17:04:45.601Z,3.53
2023-01-21T17:07:20.700Z,3.57
2023-01-21T17:09:58.997Z,2.00
2023-01-21T17:12:28.525Z,2.03
2023-01-21T17:14:59.458Z,2.00
2023-01-21T17:17:30.554Z,2.20
2023-01-21T17:19:57.510Z,3.17
2023-01-21T17:22:27.797Z,4.07
2023-01-21T17:25:02.910Z,2.77
2023-01-21T17:27:31.296Z,2.50
2023-01-21T17:30:19.451Z,2.77
2023-01-21T17:32:57.102Z,2.77
2023-01-21T17:35:25.929Z,2.57
2023-01-21T17:38:04.490Z,2.40
2023-01-21T17:40:32.869Z,2.30
2023-01-21T17:43:08.918Z,17.33
2023-01-21T17:45:38.733Z,7.43
2023-01-21T17:48:10.331Z,3.20
2023-01-21T17:50:45.489Z,1.70
2023-01-21T17:53:27.694Z,2.23
2023-01-21T17:56:04.443Z,6.13
2023-01-21T17:58:43.492Z,18.80
2023-01-21T18:01:10.810Z,8.40
2023-01-21T18:03:37.625Z,5.57
2023-01-21T18:06:10.046Z,4.87
2023-01-21T18:08:36.819Z,3.00
2023-01-21T18:11:03.530Z,3.43
2023-01-21T18:13:30.234Z,3.83
2023-01-21T18:15:57.065Z,3.03
2023-01-21T18:18:29.122Z,3.50
2023-01-21T18:20:56.628Z,3.30
2023-01-21T18:23:23.529Z,3.60
2023-01-21T18:25:54.734Z,4.40
2023-01-21T18:28:23.586Z,3.50
2023-01-21T18:30:51.661Z,3.80
2023-01-21T18:33:18.461Z,3.37
2023-01-21T18:35:48.492Z,3.43
2023-01-21T18:38:22.008Z,8.50
2023-01-21T18:40:48.954Z,10.53
2023-01-21T18:43:15.664Z,5.60
2023-01-21T18:45:42.703Z,3.50
2023-01-21T18:48:16.058Z,4.53
2023-01-21T18:50:43.075Z,4.60
2023-01-21T18:53:09.978Z,2.87
2023-01-21T18:55:36.772Z,3.27
2023-01-21T18:58:04.604Z,4.50
2023-01-21T19:00:34.130Z,4.60
2023-01-21T19:03:03.307Z,3.50
2023-01-21T19:05:34.863Z,4.60
2023-01-21T19:08:02.443Z,4.20
2023-01-21T19:10:29.144Z,4.17
2023-01-21T19:12:55.982Z,4.57
2023-01-21T19:15:24.972Z,4.30
2023-01-21T19:17:52.450Z,5.10
2023-01-21T19:20:24.549Z,4.63
2023-01-21T19:22:53.065Z,4.82
2023-01-21T19:25:21.697Z,4.80
2023-01-21T19:27:50.393Z,5.10
2023-01-21T19:30:22.338Z,5.10
2023-01-21T19:32:50.540Z,5.03
2023-01-21T19:35:20.063Z,5.03
2023-01-21T19:37:50.922Z,4.53
2023-01-21T19:40:23.568Z,3.33
2023-01-21T19:42:50.573Z,3.88
2023-01-21T19:45:18.379Z,2.73
2023-01-21T19:47:47.889Z,2.20
2023-01-21T19:50:20.113Z,2.57
2023-01-21T19:52:48.973Z,1.80
2023-01-21T19:55:20.809Z,2.40
2023-01-21T19:58:00.263Z,2.57
2023-01-21T20:00:29.920Z,2.67
2023-01-21T20:02:56.592Z,3.10
2023-01-21T20:05:25.283Z,3.33
2023-01-21T20:07:53.253Z,2.63
2023-01-21T20:10:22.798Z,3.67
2023-01-21T20:12:50.232Z,2.70
2023-01-21T20:15:20.155Z,3.10
2023-01-21T20:17:50.735Z,3.10
2023-01-21T20:20:19.631Z,5.33
2023-01-21T20:22:46.631Z,3.00
2023-01-21T20:25:20.093Z,2.33
2023-01-21T20:28:12.436Z,2.40
2023-01-21T20:30:39.134Z,2.10
2023-01-21T20:33:05.951Z,2.20
2023-01-21T20:35:32.760Z,2.10
2023-01-21T20:38:00.161Z,1.80
2023-01-21T20:40:29.075Z,1.70
2023-01-21T20:42:57.340Z,2.30
2023-01-21T20:45:29.891Z,1.33
2023-01-21T20:48:01.073Z,1.90
2023-01-21T20:50:36.133Z,2.30
2023-01-21T20:53:04.092Z,1.67
2023-01-21T20:55:31.748Z,2.30
2023-01-21T20:57:58.664Z,1.60
2023-01-21T21:00:27.635Z,1.97
2023-01-21T21:02:57.891Z,1.73
2023-01-21T21:05:27.412Z,2.33
2023-01-21T21:07:55.229Z,1.90
2023-01-21T21:10:23.484Z,2.30
2023-01-21T21:12:51.006Z,1.77
2023-01-21T21:15:19.810Z,1.80
2023-01-21T21:17:49.573Z,1.33
2023-01-21T21:20:19.780Z,1.27
2023-01-21T21:22:46.813Z,1.77
2023-01-21T21:25:16.444Z,1.20
2023-01-21T21:27:44.235Z,2.60
2023-01-21T21:30:32.871Z,5.23
2023-01-21T21:33:01.154Z,2.70
2023-01-21T21:35:38.859Z,1.80
2023-01-21T21:38:10.253Z,1.53
2023-01-21T21:40:37.250Z,1.63
2023-01-21T21:43:23.473Z,1.80
2023-01-21T21:46:08.933Z,1.90
2023-01-21T21:48:38.647Z,1.77
2023-01-21T21:51:06.126Z,1.10
2023-01-21T21:53:33.057Z,1.10
2023-01-21T21:56:13.221Z,1.73
2023-01-21T21:58:40.458Z,1.57
2023-01-21T22:01:08.472Z,1.80
2023-01-21T22:03:35.380Z,1.10
2023-01-21T22:06:04.060Z,1.53
2023-01-21T22:08:32.729Z,1.00
2023-01-21T22:11:00.947Z,0.90
2023-01-21T22:13:28.989Z,0.90
2023-01-21T22:15:57.554Z,1.30
2023-01-21T22:18:25.357Z,1.40
2023-01-21T22:20:55.476Z,1.13
2023-01-21T22:23:22.599Z,1.10
2023-01-21T22:25:49.541Z,0.90
2023-01-21T22:28:16.434Z,1.30
2023-01-21T22:30:43.367Z,1.10
2023-01-21T22:33:10.838Z,1.20
2023-01-21T22:35:39.652Z,1.93
2023-01-21T22:38:06.792Z,1.50
2023-01-21T22:40:36.799Z,0.97
2023-01-21T22:43:03.502Z,1.33
2023-01-21T22:45:30.307Z,1.83
2023-01-21T22:47:57.088Z,2.03
2023-01-21T22:50:23.906Z,1.10
2023-01-21T22:52:50.802Z,1.10
2023-01-21T22:55:17.890Z,1.07
2023-01-21T22:57:44.780Z,1.03
2023-01-21T23:00:16.367Z,1.73
2023-01-21T23:02:43.473Z,1.30
2023-01-21T23:05:10.390Z,0.70
2023-01-21T23:07:39.246Z,1.00
2023-01-21T23:10:06.481Z,1.10
2023-01-21T23:12:33.194Z,1.57
2023-01-21T23:14:59.966Z,1.07
2023-01-21T23:17:26.709Z,1.40
2023-01-21T23:19:53.398Z,1.40
2023-01-21T23:22:20.096Z,1.37
2023-01-21T23:24:46.856Z,2.47
2023-01-21T23:27:13.509Z,1.73
2023-01-21T23:29:40.238Z,1.33
2023-01-21T23:32:09.853Z,1.70
2023-01-21T23:34:36.465Z,2.00
2023-01-21T23:37:03.140Z,1.40
2023-01-21T23:39:30.071Z,1.60
2023-01-21T23:41:56.715Z,1.53
2023-01-21T23:44:25.514Z,2.40
2023-01-21T23:46:52.937Z,2.17
2023-01-21T23:49:19.814Z,1.50
2023-01-21T23:51:47.575Z,2.03
2023-01-21T23:54:14.698Z,2.40
2023-01-21T23:56:41.398Z,2.40
2023-01-21T23:59:08.112Z,1.77
